Time;durP1;ratioP1;P1;durP2;ratioP2;P2;SDS_P1;SDS_P2;PMS_P1;PMS_P2;Temp;Humidity;BMP_temperature;BMP_pressure;BME280_temperature;BME280_humidity;BME280_pressure;Samples;Min_cycle;Max_cycle;Signal;HPM_P1;HPM_P2
2021/09/09 00:01:11;;;;;;;17.00;10.05;;;16.20;98.00;;;;;;5035440;28;20033;-67
2021/09/09 00:03:37;;;;;;;13.52;9.32;;;16.30;98.00;;;;;;5035835;28;20033;-67
2021/09/09 00:06:03;;;;;;;17.33;10.32;;;16.50;97.90;;;;;;5034729;28;20076;-67
2021/09/09 00:08:29;;;;;;;15.73;9.93;;;16.80;97.40;;;;;;5033197;28;20037;-67
2021/09/09 00:10:54;;;;;;;15.93;9.80;;;17.20;96.70;;;;;;5035783;28;20030;-67
2021/09/09 00:13:20;;;;;;;15.20;8.93;;;17.50;95.70;;;;;;5035895;28;20041;-66
2021/09/09 00:15:46;;;;;;;13.38;9.32;;;17.80;94.90;;;;;;5035805;28;20028;-67
2021/09/09 00:18:13;;;;;;;13.77;9.02;;;17.90;94.50;;;;;;5036140;28;20112;-67
2021/09/09 00:20:39;;;;;;;12.35;8.15;;;18.00;94.10;;;;;;5034503;28;20022;-67
2021/09/09 00:23:04;;;;;;;14.88;8.10;;;18.10;93.50;;;;;;5030684;28;20075;-67
2021/09/09 00:25:30;;;;;;;12.27;8.18;;;18.30;92.80;;;;;;5032577;28;20386;-67
2021/09/09 00:27:56;;;;;;;10.80;7.25;;;18.50;91.90;;;;;;5036151;28;20437;-66
2021/09/09 00:30:21;;;;;;;15.85;7.88;;;18.60;90.80;;;;;;5035976;28;20326;-67
2021/09/09 00:32:47;;;;;;;15.20;8.18;;;18.80;90.30;;;;;;5036150;28;20029;-66
2021/09/09 00:35:13;;;;;;;12.10;7.28;;;18.90;89.90;;;;;;5035175;28;20033;-67
2021/09/09 00:37:38;;;;;;;10.98;7.38;;;18.90;89.30;;;;;;5035537;28;20030;-67
2021/09/09 00:40:05;;;;;;;10.45;7.03;;;19.00;88.90;;;;;;5034123;28;20053;-67
2021/09/09 00:42:30;;;;;;;10.82;7.50;;;19.00;88.50;;;;;;5032862;28;20033;-67
2021/09/09 00:44:56;;;;;;;12.55;7.47;;;19.10;88.30;;;;;;5020631;28;20334;-67
2021/09/09 00:47:22;;;;;;;11.93;7.28;;;19.10;88.20;;;;;;5034247;28;20482;-66
2021/09/09 00:49:47;;;;;;;10.73;7.05;;;19.00;88.30;;;;;;5033751;28;20029;-66
2021/09/09 00:52:14;;;;;;;13.75;7.40;;;19.00;88.20;;;;;;5033911;28;20079;-67
2021/09/09 00:54:44;;;;;;;13.68;8.02;;;18.90;88.50;;;;;;5031400;28;20334;-67
2021/09/09 00:57:09;;;;;;;11.85;7.20;;;18.80;88.80;;;;;;5016380;28;20153;-67
2021/09/09 00:59:36;;;;;;;10.70;7.40;;;18.70;88.70;;;;;;5020282;28;20423;-67
2021/09/09 01:02:03;;;;;;;12.10;7.43;;;18.70;89.00;;;;;;5032990;28;20033;-67
2021/09/09 01:04:29;;;;;;;11.75;7.70;;;18.70;88.80;;;;;;5033903;28;20036;-67
2021/09/09 01:06:56;;;;;;;13.93;7.38;;;18.70;88.40;;;;;;5034088;28;20041;-67
2021/09/09 01:09:22;;;;;;;15.35;7.43;;;18.90;87.90;;;;;;5034089;28;20038;-67
2021/09/09 01:11:50;;;;;;;12.55;7.28;;;18.80;87.90;;;;;;5034508;28;20022;-67
2021/09/09 01:14:18;;;;;;;11.15;7.25;;;18.90;87.60;;;;;;5032869;28;20025;-66
2021/09/09 01:16:45;;;;;;;12.80;6.80;;;18.90;87.70;;;;;;5031449;28;20056;-68
2021/09/09 01:19:13;;;;;;;11.77;7.07;;;18.90;87.50;;;;;;5033401;28;20038;-67
2021/09/09 01:21:40;;;;;;;10.75;7.13;;;18.90;87.40;;;;;;5036281;28;20099;-67
2021/09/09 01:24:12;;;;;;;12.70;6.82;;;18.90;87.50;;;;;;5051427;28;20029;-67
2021/09/09 01:26:55;;;;;;;11.50;7.00;;;18.90;87.10;;;;;;5039120;28;20033;-67
2021/09/09 01:29:24;;;;;;;11.18;6.32;;;19.10;86.80;;;;;;5039697;28;20036;-67
2021/09/09 01:31:51;;;;;;;12.73;6.82;;;19.00;87.00;;;;;;5039392;28;20083;-67
2021/09/09 01:34:19;;;;;;;17.05;6.97;;;19.20;86.20;;;;;;5035854;28;20298;-67
2021/09/09 01:36:47;;;;;;;10.90;6.82;;;19.30;86.10;;;;;;5038314;28;20048;-68
2021/09/09 01:39:13;;;;;;;14.07;6.80;;;19.30;85.80;;;;;;5037938;28;20737;-69
2021/09/09 01:41:39;;;;;;;10.30;6.45;;;19.30;86.00;;;;;;5045382;28;20099;-68
2021/09/09 01:44:10;;;;;;;11.60;6.82;;;19.20;85.90;;;;;;5049622;28;20104;-68
2021/09/09 01:46:36;;;;;;;10.75;6.50;;;19.10;86.70;;;;;;5039417;28;20080;-67
2021/09/09 01:49:04;;;;;;;10.88;6.80;;;19.00;86.80;;;;;;5037992;28;20025;-67
2021/09/09 01:51:34;;;;;;;11.60;7.38;;;19.00;87.00;;;;;;5035283;28;20037;-67
2021/09/09 01:54:01;;;;;;;11.85;7.30;;;19.00;86.90;;;;;;5017437;28;20025;-67
2021/09/09 01:56:27;;;;;;;11.23;6.90;;;19.10;86.60;;;;;;5021865;28;20029;-67
2021/09/09 01:58:54;;;;;;;11.73;6.95;;;19.10;86.90;;;;;;5037351;28;20029;-68
2021/09/09 02:01:21;;;;;;;13.25;7.32;;;19.00;87.10;;;;;;5028335;28;20021;-67
2021/09/09 02:03:47;;;;;;;10.90;7.10;;;18.90;87.40;;;;;;5015856;28;20037;-67
2021/09/09 02:06:14;;;;;;;12.07;7.60;;;19.00;87.00;;;;;;5034096;28;20099;-67
2021/09/09 02:08:41;;;;;;;15.15;7.72;;;19.00;87.20;;;;;;5025521;28;20036;-67
2021/09/09 02:11:09;;;;;;;13.10;7.35;;;18.70;88.80;;;;;;5029808;28;20025;-67
2021/09/09 02:13:34;;;;;;;11.13;7.20;;;18.30;90.00;;;;;;5036044;28;20025;-67
2021/09/09 02:16:00;;;;;;;14.73;7.88;;;18.10;90.50;;;;;;5037187;28;20029;-67
2021/09/09 02:18:27;;;;;;;11.13;7.25;;;18.10;90.60;;;;;;5031744;28;20076;-67
2021/09/09 02:20:53;;;;;;;17.17;7.57;;;18.30;90.00;;;;;;5036340;28;20422;-67
2021/09/09 02:23:19;;;;;;;10.15;6.88;;;18.60;88.90;;;;;;5024575;28;20113;-67
2021/09/09 02:25:45;;;;;;;12.43;7.30;;;18.80;88.50;;;;;;5034468;28;20025;-67
2021/09/09 02:28:11;;;;;;;11.98;7.68;;;18.80;88.70;;;;;;5025741;28;20026;-67
2021/09/09 02:30:37;;;;;;;11.88;7.75;;;18.80;88.70;;;;;;5022268;28;20029;-67
2021/09/09 02:33:03;;;;;;;12.13;7.95;;;18.90;88.30;;;;;;5035704;28;20036;-67
2021/09/09 02:35:29;;;;;;;11.93;7.53;;;19.00;87.90;;;;;;5036463;28;20040;-67
2021/09/09 02:37:55;;;;;;;11.02;6.80;;;19.10;88.00;;;;;;5034937;28;20030;-67
2021/09/09 02:40:21;;;;;;;12.90;7.95;;;19.00;88.20;;;;;;5034638;28;20501;-66
2021/09/09 02:42:46;;;;;;;13.93;7.97;;;18.90;88.40;;;;;;5028439;28;20322;-67
2021/09/09 02:45:13;;;;;;;13.40;7.65;;;18.90;88.50;;;;;;5023343;28;20029;-67
2021/09/09 02:47:39;;;;;;;11.10;7.47;;;18.80;88.80;;;;;;5035705;28;20056;-67
2021/09/09 02:50:08;;;;;;;11.77;7.88;;;18.80;88.80;;;;;;5051544;28;20445;-67
2021/09/09 02:52:35;;;;;;;10.73;7.63;;;18.90;88.40;;;;;;5030704;28;20033;-67
2021/09/09 02:55:01;;;;;;;14.40;8.65;;;18.90;88.30;;;;;;5035011;28;20096;-67
2021/09/09 02:57:27;;;;;;;10.70;7.53;;;18.80;88.50;;;;;;5034049;28;20021;-67
2021/09/09 02:59:53;;;;;;;11.70;7.57;;;18.80;88.60;;;;;;5030429;28;20406;-68
2021/09/09 03:02:19;;;;;;;13.93;8.10;;;18.80;88.60;;;;;;5025010;28;20026;-66
2021/09/09 03:04:45;;;;;;;11.60;8.02;;;18.70;88.70;;;;;;5035800;28;20036;-67
2021/09/09 03:07:12;;;;;;;13.48;7.85;;;18.80;88.50;;;;;;5038906;28;20029;-67
2021/09/09 03:09:39;;;;;;;15.13;7.47;;;18.90;88.30;;;;;;5018501;28;20100;-67
2021/09/09 03:12:06;;;;;;;18.50;8.23;;;18.90;88.00;;;;;;5016419;28;20022;-67
2021/09/09 03:14:31;;;;;;;13.45;7.82;;;18.90;88.10;;;;;;5031324;28;20437;-67
2021/09/09 03:16:58;;;;;;;12.93;7.70;;;18.80;88.20;;;;;;5035448;28;20018;-67
2021/09/09 03:19:23;;;;;;;12.00;7.10;;;18.70;88.60;;;;;;5034359;28;20033;-67
2021/09/09 03:21:49;;;;;;;11.95;7.63;;;18.70;88.40;;;;;;5034073;28;20017;-67
2021/09/09 03:24:17;;;;;;;11.57;7.32;;;18.70;88.60;;;;;;5030686;28;20034;-67
2021/09/09 03:26:43;;;;;;;13.20;7.30;;;18.60;88.80;;;;;;5027065;28;20458;-66
2021/09/09 03:29:11;;;;;;;12.40;7.93;;;18.70;88.40;;;;;;5027243;28;20030;-67
2021/09/09 03:31:37;;;;;;;11.55;7.55;;;18.80;88.10;;;;;;5035325;28;20020;-66
2021/09/09 03:34:03;;;;;;;10.88;7.38;;;18.80;87.70;;;;;;5034502;28;20018;-67
2021/09/09 03:36:29;;;;;;;13.43;7.30;;;18.60;88.20;;;;;;5035479;28;20429;-66
2021/09/09 03:38:55;;;;;;;12.10;7.15;;;18.60;88.10;;;;;;5034398;28;20064;-67
2021/09/09 03:41:22;;;;;;;11.05;7.22;;;18.60;88.20;;;;;;5034907;28;20334;-67
2021/09/09 03:43:48;;;;;;;11.98;7.50;;;18.50;88.80;;;;;;5033729;28;20071;-67
2021/09/09 03:46:14;;;;;;;10.15;7.00;;;18.40;88.70;;;;;;5026749;28;20503;-67
2021/09/09 03:48:40;;;;;;;11.32;6.90;;;18.30;88.90;;;;;;5033962;28;20033;-67
2021/09/09 03:51:08;;;;;;;11.68;7.35;;;18.30;88.70;;;;;;5032619;28;20029;-67
2021/09/09 03:53:34;;;;;;;11.20;6.93;;;18.30;88.70;;;;;;5032773;28;20083;-67
2021/09/09 03:55:59;;;;;;;12.98;6.45;;;18.30;88.50;;;;;;5035834;28;20022;-67
2021/09/09 03:58:25;;;;;;;12.15;7.05;;;18.30;87.80;;;;;;5036355;28;20013;-67
2021/09/09 04:00:51;;;;;;;10.32;6.97;;;18.30;88.60;;;;;;5036063;28;20030;-67
2021/09/09 04:03:18;;;;;;;11.27;7.03;;;18.10;89.10;;;;;;5035639;28;20325;-67
2021/09/09 04:05:44;;;;;;;10.40;7.72;;;18.00;89.70;;;;;;5035775;28;20109;-67
2021/09/09 04:08:09;;;;;;;12.02;6.97;;;17.90;90.20;;;;;;5033303;28;20026;-67
2021/09/09 04:10:37;;;;;;;12.93;7.45;;;17.80;90.10;;;;;;5035793;28;20557;-67
2021/09/09 04:13:03;;;;;;;12.00;7.32;;;17.80;90.20;;;;;;5036495;28;20438;-67
2021/09/09 04:15:29;;;;;;;9.43;6.65;;;17.80;89.50;;;;;;5035444;28;20025;-67
2021/09/09 04:17:55;;;;;;;10.20;6.75;;;18.00;89.00;;;;;;5035658;28;20036;-67
2021/09/09 04:20:21;;;;;;;11.15;6.55;;;18.10;88.60;;;;;;5035319;28;20040;-66
2021/09/09 04:22:47;;;;;;;10.95;7.32;;;18.20;88.20;;;;;;5022796;28;20029;-67
2021/09/09 04:25:12;;;;;;;12.98;6.45;;;18.20;88.20;;;;;;5035696;28;20480;-67
2021/09/09 04:27:38;;;;;;;10.82;7.65;;;18.30;87.90;;;;;;5036093;28;20460;-67
2021/09/09 04:30:05;;;;;;;10.77;7.20;;;18.30;88.10;;;;;;5030449;28;20175;-67
2021/09/09 04:32:31;;;;;;;10.90;6.68;;;18.30;88.00;;;;;;5029191;28;20053;-67
2021/09/09 04:34:57;;;;;;;11.75;6.72;;;18.20;87.80;;;;;;5029038;28;21977;-67
2021/09/09 04:37:23;;;;;;;10.43;7.18;;;18.30;87.30;;;;;;5035274;28;20319;-67
2021/09/09 04:39:49;;;;;;;10.13;6.65;;;18.30;87.50;;;;;;5033716;28;20045;-67
2021/09/09 04:42:15;;;;;;;12.05;6.70;;;18.30;86.80;;;;;;5036158;28;20057;-67
2021/09/09 04:44:41;;;;;;;10.75;7.07;;;18.30;86.90;;;;;;5024949;28;20095;-67
2021/09/09 04:47:07;;;;;;;11.23;7.00;;;18.40;86.20;;;;;;5034463;28;20430;-66
2021/09/09 04:49:34;;;;;;;11.48;7.15;;;18.50;86.80;;;;;;5035079;28;20037;-67
2021/09/09 04:52:00;;;;;;;9.95;6.88;;;18.40;86.50;;;;;;5032439;28;20327;-67
2021/09/09 04:54:26;;;;;;;10.98;6.70;;;18.30;86.50;;;;;;5030587;28;20025;-66
2021/09/09 04:56:52;;;;;;;18.75;7.03;;;18.30;86.30;;;;;;5035220;28;20032;-66
2021/09/09 04:59:18;;;;;;;9.85;6.75;;;18.30;86.50;;;;;;5035380;28;20025;-66
2021/09/09 05:01:44;;;;;;;10.30;7.07;;;18.20;86.70;;;;;;5034048;28;20025;-66
2021/09/09 05:04:10;;;;;;;11.40;7.03;;;18.20;87.30;;;;;;5033081;28;20772;-67
2021/09/09 05:06:36;;;;;;;9.27;6.57;;;18.10;87.10;;;;;;5035135;28;20032;-67
2021/09/09 05:09:02;;;;;;;11.25;6.53;;;18.10;86.90;;;;;;5037652;28;20377;-67
2021/09/09 05:11:28;;;;;;;11.50;6.22;;;18.10;87.10;;;;;;5046998;28;20465;-67
2021/09/09 05:13:54;;;;;;;10.20;6.50;;;18.10;86.80;;;;;;5046550;28;20041;-67
2021/09/09 05:16:20;;;;;;;10.73;6.90;;;18.20;86.40;;;;;;5021549;28;20026;-67
2021/09/09 05:18:46;;;;;;;10.50;6.63;;;18.30;86.30;;;;;;5016950;28;20041;-67
2021/09/09 05:21:12;;;;;;;9.50;6.25;;;18.10;86.30;;;;;;5006319;28;20037;-67
2021/09/09 05:23:38;;;;;;;10.63;6.88;;;18.30;86.10;;;;;;5004398;28;20092;-67
2021/09/09 05:26:04;;;;;;;12.38;6.95;;;18.30;85.90;;;;;;5009772;28;20029;-67
2021/09/09 05:28:30;;;;;;;10.88;6.43;;;18.30;85.60;;;;;;5015415;28;20029;-67
2021/09/09 05:30:56;;;;;;;9.40;6.35;;;18.30;85.90;;;;;;5015899;28;20018;-67
2021/09/09 05:33:22;;;;;;;10.20;6.38;;;18.40;85.50;;;;;;5015479;28;20157;-67
2021/09/09 05:35:48;;;;;;;12.13;6.60;;;18.50;85.60;;;;;;5015004;28;20108;-67
2021/09/09 05:38:14;;;;;;;11.75;6.28;;;18.50;85.20;;;;;;5013176;28;20077;-67
2021/09/09 05:40:40;;;;;;;12.98;6.90;;;18.50;85.30;;;;;;5015170;28;20050;-67
2021/09/09 05:43:06;;;;;;;10.38;6.90;;;18.50;85.80;;;;;;5014469;28;20026;-67
2021/09/09 05:45:32;;;;;;;10.75;6.68;;;18.40;86.30;;;;;;5015192;28;20026;-67
2021/09/09 05:47:58;;;;;;;9.85;6.32;;;18.50;86.10;;;;;;5013795;28;20323;-67
2021/09/09 05:50:24;;;;;;;9.52;6.32;;;18.50;85.70;;;;;;5015250;28;20042;-67
2021/09/09 05:52:50;;;;;;;9.93;6.55;;;18.70;85.30;;;;;;5013845;28;20458;-67
2021/09/09 05:55:16;;;;;;;9.27;6.28;;;18.80;85.30;;;;;;5014928;28;20044;-67
2021/09/09 05:57:42;;;;;;;9.85;6.35;;;18.90;84.50;;;;;;5014188;28;20045;-67
2021/09/09 06:00:10;;;;;;;10.80;6.45;;;19.00;85.20;;;;;;5014594;28;20042;-67
2021/09/09 06:02:42;;;;;;;9.65;6.38;;;19.00;85.10;;;;;;5014820;28;20061;-67
2021/09/09 06:05:09;;;;;;;12.57;6.30;;;19.10;84.50;;;;;;5013170;28;20045;-67
2021/09/09 06:07:35;;;;;;;8.73;5.70;;;19.30;84.00;;;;;;5019018;28;20044;-67
2021/09/09 06:10:01;;;;;;;9.90;6.43;;;19.30;84.60;;;;;;5017190;28;20018;-67
2021/09/09 06:12:27;;;;;;;12.15;6.50;;;19.40;84.30;;;;;;5017830;28;20034;-67
2021/09/09 06:14:54;;;;;;;10.73;6.60;;;19.50;83.60;;;;;;5016995;28;20057;-67
2021/09/09 06:17:20;;;;;;;16.30;6.97;;;19.80;82.70;;;;;;5013362;28;20100;-67
2021/09/09 06:19:46;;;;;;;8.98;6.00;;;20.20;81.50;;;;;;5007722;28;20436;-67
2021/09/09 06:22:12;;;;;;;9.73;6.68;;;20.30;82.40;;;;;;5033122;28;20069;-67
2021/09/09 06:24:38;;;;;;;11.52;6.10;;;20.40;82.20;;;;;;5016512;28;20117;-67
2021/09/09 06:27:04;;;;;;;9.70;6.00;;;20.60;82.30;;;;;;5017722;28;20038;-67
2021/09/09 06:29:30;;;;;;;10.85;6.13;;;20.90;79.30;;;;;;5016531;28;20052;-67
2021/09/09 06:31:57;;;;;;;9.15;6.32;;;21.10;80.30;;;;;;5017636;28;20022;-67
2021/09/09 06:34:23;;;;;;;8.05;5.18;;;21.20;79.00;;;;;;5017571;28;20081;-67
2021/09/09 06:36:49;;;;;;;11.02;6.55;;;21.40;78.70;;;;;;5018555;28;20022;-67
2021/09/09 06:39:17;;;;;;;9.85;6.20;;;21.60;77.50;;;;;;5016724;28;20513;-67
2021/09/09 06:41:45;;;;;;;9.32;6.00;;;21.80;77.70;;;;;;5017900;28;20045;-68
2021/09/09 06:44:14;;;;;;;8.93;5.72;;;21.90;77.10;;;;;;5017560;28;20128;-67
2021/09/09 06:46:41;;;;;;;9.40;6.05;;;21.90;78.00;;;;;;5016742;28;20319;-67
2021/09/09 06:49:07;;;;;;;10.13;6.20;;;21.80;78.40;;;;;;5018574;28;20038;-67
2021/09/09 06:51:34;;;;;;;9.77;5.53;;;21.60;77.30;;;;;;5018406;28;20022;-67
2021/09/09 06:54:03;;;;;;;9.50;6.10;;;21.50;76.30;;;;;;5016785;28;20092;-67
2021/09/09 06:56:29;;;;;;;8.98;6.43;;;21.40;77.30;;;;;;5018352;28;20048;-67
2021/09/09 06:58:55;;;;;;;11.25;5.97;;;21.30;77.60;;;;;;5018671;28;20450;-67
2021/09/09 07:01:21;;;;;;;11.20;6.20;;;21.20;77.40;;;;;;5016939;28;20109;-67
2021/09/09 07:03:47;;;;;;;10.85;5.97;;;21.30;77.60;;;;;;5016472;28;20025;-67
2021/09/09 07:06:14;;;;;;;9.18;6.28;;;21.50;76.60;;;;;;5017158;28;20080;-67
2021/09/09 07:08:40;;;;;;;8.50;5.82;;;21.50;76.50;;;;;;5017051;28;20025;-67
2021/09/09 07:11:06;;;;;;;9.15;5.50;;;21.40;76.50;;;;;;5017622;28;20018;-67
2021/09/09 07:13:32;;;;;;;8.07;5.53;;;21.50;77.30;;;;;;5010791;28;20022;-67
2021/09/09 07:15:59;;;;;;;9.88;6.13;;;21.50;76.70;;;;;;5016428;28;20362;-67
2021/09/09 07:18:28;;;;;;;15.23;6.13;;;21.60;77.40;;;;;;5018169;28;20028;-67
2021/09/09 07:20:55;;;;;;;11.43;6.50;;;21.70;76.20;;;;;;5017787;28;20029;-67
2021/09/09 07:23:21;;;;;;;18.38;9.05;;;22.00;77.10;;;;;;5015538;28;20083;-67
2021/09/09 07:25:48;;;;;;;10.43;6.82;;;22.20;77.50;;;;;;5017057;28;20453;-67
2021/09/09 07:28:16;;;;;;;11.77;6.15;;;22.60;74.20;;;;;;4998289;28;20026;-67
2021/09/09 07:30:44;;;;;;;8.75;5.72;;;22.80;73.60;;;;;;5010559;28;20033;-67
2021/09/09 07:33:10;;;;;;;11.13;6.13;;;22.80;73.70;;;;;;5015000;28;20435;-67
2021/09/09 07:35:37;;;;;;;13.85;6.45;;;22.80;74.00;;;;;;5016954;28;20026;-66
2021/09/09 07:38:03;;;;;;;10.07;6.25;;;22.50;73.70;;;;;;5015009;28;20334;-67
2021/09/09 07:40:30;;;;;;;9.00;6.30;;;22.40;75.70;;;;;;5017513;28;20443;-67
2021/09/09 07:42:55;;;;;;;10.52;6.75;;;22.20;75.70;;;;;;5017411;28;20034;-67
2021/09/09 07:45:21;;;;;;;8.40;5.85;;;22.30;75.90;;;;;;5013908;28;20127;-67
2021/09/09 07:47:47;;;;;;;9.05;6.25;;;22.50;74.40;;;;;;5000338;28;20038;-67
2021/09/09 07:50:13;;;;;;;11.80;6.40;;;22.60;75.00;;;;;;4996764;28;20121;-67
2021/09/09 07:52:40;;;;;;;10.18;6.10;;;22.90;76.50;;;;;;5016607;28;20161;-67
2021/09/09 07:55:08;;;;;;;8.88;5.72;;;23.30;73.20;;;;;;5014336;28;20430;-66
2021/09/09 07:57:35;;;;;;;12.20;6.10;;;23.90;72.60;;;;;;5016994;28;20030;-67
2021/09/09 08:00:01;;;;;;;10.65;6.03;;;23.90;71.60;;;;;;5015764;28;20103;-67
2021/09/09 08:02:27;;;;;;;8.98;5.55;;;23.70;71.80;;;;;;5016935;28;20038;-66
2021/09/09 08:04:53;;;;;;;10.35;6.05;;;23.50;72.20;;;;;;5014614;28;20093;-67
2021/09/09 08:07:19;;;;;;;10.73;5.40;;;23.10;71.80;;;;;;5016882;28;20327;-67
2021/09/09 08:09:46;;;;;;;10.20;5.43;;;22.80;72.60;;;;;;5015777;28;20030;-66
2021/09/09 08:12:12;;;;;;;8.38;5.40;;;22.70;73.30;;;;;;5016161;28;20026;-67
2021/09/09 08:14:38;;;;;;;8.30;5.43;;;22.60;73.10;;;;;;5016545;28;20022;-67
2021/09/09 08:17:04;;;;;;;8.57;5.35;;;22.60;72.60;;;;;;5009332;28;20331;-67
2021/09/09 08:19:30;;;;;;;8.50;5.22;;;22.50;72.90;;;;;;5009534;28;20033;-67
2021/09/09 08:21:56;;;;;;;8.18;5.05;;;22.60;72.60;;;;;;5016355;28;20300;-67
2021/09/09 08:24:22;;;;;;;9.75;5.70;;;22.80;72.20;;;;;;5015413;28;20063;-67
2021/09/09 08:26:48;;;;;;;8.57;5.22;;;22.90;73.20;;;;;;5016544;28;20528;-67
2021/09/09 08:29:14;;;;;;;9.52;4.75;;;23.50;71.10;;;;;;5016663;28;20030;-67
2021/09/09 08:31:39;;;;;;;7.90;5.07;;;23.60;71.60;;;;;;5015338;28;20033;-67
2021/09/09 08:34:05;;;;;;;8.00;5.47;;;23.00;72.20;;;;;;5016716;28;20022;-67
2021/09/09 08:36:31;;;;;;;10.90;5.40;;;22.70;71.60;;;;;;5004495;28;20109;-67
2021/09/09 08:38:58;;;;;;;10.88;5.53;;;22.50;73.00;;;;;;5005596;28;20046;-67
2021/09/09 08:41:25;;;;;;;7.80;4.95;;;22.50;72.80;;;;;;5009512;28;20029;-67
2021/09/09 08:43:51;;;;;;;10.30;5.40;;;22.50;73.20;;;;;;5014697;28;20026;-67
2021/09/09 08:46:17;;;;;;;8.65;4.88;;;22.70;72.00;;;;;;5015458;28;20034;-67
2021/09/09 08:48:45;;;;;;;7.82;5.10;;;22.60;73.10;;;;;;5016378;28;20041;-67
2021/09/09 08:51:15;;;;;;;8.35;5.10;;;22.50;73.10;;;;;;5014590;28;20026;-67
2021/09/09 08:53:41;;;;;;;7.82;5.35;;;22.60;73.30;;;;;;5010666;28;20422;-68
2021/09/09 08:56:07;;;;;;;11.25;5.10;;;22.80;72.50;;;;;;5015000;28;20330;-66
2021/09/09 08:58:36;;;;;;;7.32;4.60;;;22.90;72.10;;;;;;5014617;28;20120;-67
2021/09/09 09:01:08;;;;;;;9.52;5.40;;;23.00;72.30;;;;;;5014068;28;20091;-67
2021/09/09 09:03:51;;;;;;;8.25;4.93;;;22.90;72.10;;;;;;5015931;28;20418;-67
2021/09/09 09:06:24;;;;;;;8.07;4.97;;;23.00;72.00;;;;;;5014556;28;20034;-67
2021/09/09 09:08:59;;;;;;;6.72;4.50;;;23.30;72.10;;;;;;5013842;28;20117;-67
2021/09/09 09:11:31;;;;;;;11.77;4.65;;;23.60;71.10;;;;;;5014382;28;20497;-66
2021/09/09 09:13:58;;;;;;;10.82;5.32;;;23.50;70.50;;;;;;5001634;28;20032;-66
2021/09/09 09:16:25;;;;;;;8.73;5.32;;;23.20;73.90;;;;;;5012944;28;20091;-66
2021/09/09 09:18:53;;;;;;;7.13;5.05;;;22.80;73.10;;;;;;5014858;28;20438;-67
2021/09/09 09:21:20;;;;;;;7.68;5.18;;;22.60;74.10;;;;;;5029539;28;20060;-66
2021/09/09 09:23:50;;;;;;;8.43;5.43;;;22.60;73.70;;;;;;5019432;28;20018;-66
2021/09/09 09:26:17;;;;;;;10.40;5.00;;;22.80;73.70;;;;;;4996549;28;20034;-66
2021/09/09 09:28:46;;;;;;;10.15;5.30;;;22.60;74.10;;;;;;5006015;28;20026;-66
2021/09/09 09:31:24;;;;;;;9.05;5.00;;;22.70;73.90;;;;;;5014888;28;20309;-66
2021/09/09 09:33:56;;;;;;;8.00;5.35;;;23.00;74.20;;;;;;5013111;28;20419;-66
2021/09/09 09:36:43;;;;;;;7.57;5.05;;;23.20;73.30;;;;;;5001112;28;20045;-66
2021/09/09 09:39:11;;;;;;;7.82;4.75;;;24.00;71.70;;;;;;5015077;28;20095;-66
2021/09/09 09:41:39;;;;;;;7.85;4.53;;;25.10;70.30;;;;;;5019812;28;20104;-66
2021/09/09 09:44:10;;;;;;;7.07;4.60;;;26.50;66.20;;;;;;5019349;28;20030;-66
2021/09/09 09:46:39;;;;;;;8.25;5.20;;;26.40;65.40;;;;;;5019521;28;20026;-66
2021/09/09 09:49:29;;;;;;;7.97;5.10;;;25.50;65.50;;;;;;5019704;28;20037;-66
2021/09/09 09:52:00;;;;;;;10.65;4.70;;;24.50;67.40;;;;;;5019417;28;20033;-66
2021/09/09 09:54:28;;;;;;;9.23;5.00;;;23.90;67.90;;;;;;5016643;28;20155;-67
2021/09/09 09:56:55;;;;;;;7.00;4.50;;;23.80;69.00;;;;;;5019017;28;20101;-66
2021/09/09 09:59:22;;;;;;;9.88;4.60;;;23.70;67.60;;;;;;5019126;28;20509;-65
2021/09/09 10:01:48;;;;;;;7.53;4.57;;;23.60;68.20;;;;;;5015798;28;20038;-66
2021/09/09 10:04:20;;;;;;;7.70;4.75;;;23.60;67.20;;;;;;5016890;28;20030;-66
2021/09/09 10:06:51;;;;;;;8.38;4.85;;;24.20;67.50;;;;;;5021463;28;20022;-66
2021/09/09 10:09:18;;;;;;;9.55;4.80;;;25.30;64.80;;;;;;5010136;28;20029;-66
2021/09/09 10:11:44;;;;;;;9.63;5.18;;;25.20;65.00;;;;;;5039025;28;20025;-66
2021/09/09 10:14:23;;;;;;;10.32;5.45;;;25.20;63.80;;;;;;5035042;28;20365;-66
2021/09/09 10:16:52;;;;;;;7.63;4.93;;;25.20;63.90;;;;;;5018548;28;20022;-66
2021/09/09 10:19:35;;;;;;;7.30;4.68;;;25.80;64.30;;;;;;5021924;28;20155;-67
2021/09/09 10:22:13;;;;;;;8.40;4.53;;;25.90;61.80;;;;;;5021166;28;20027;-66
2021/09/09 10:24:44;;;;;;;9.75;5.25;;;25.30;62.70;;;;;;5015440;28;20427;-66
2021/09/09 10:27:33;;;;;;;7.93;5.30;;;24.80;63.20;;;;;;5003514;28;20037;-67
2021/09/09 10:30:06;;;;;;;9.98;5.13;;;24.40;64.60;;;;;;5011398;28;20455;-66
2021/09/09 10:32:37;;;;;;;8.35;4.72;;;24.20;65.40;;;;;;5016785;28;20446;-67
2021/09/09 10:35:18;;;;;;;9.45;5.10;;;24.30;66.20;;;;;;5027110;28;20058;-66
2021/09/09 10:37:59;;;;;;;7.15;4.65;;;24.80;64.60;;;;;;5015303;28;20331;-66
2021/09/09 10:40:31;;;;;;;8.38;4.60;;;24.90;64.80;;;;;;5015777;28;20108;-66
2021/09/09 10:42:59;;;;;;;10.02;5.05;;;24.90;63.40;;;;;;5004323;28;20292;-66
2021/09/09 10:46:03;;;;;;;6.63;4.65;;;24.50;63.50;;;;;;4999027;28;20026;-66
2021/09/09 10:48:30;;;;;;;7.78;4.32;;;25.00;63.70;;;;;;5016025;28;20029;-66
2021/09/09 10:51:00;;;;;;;8.27;4.93;;;26.20;61.00;;;;;;5016981;28;20034;-66
2021/09/09 10:53:54;;;;;;;6.50;4.25;;;27.00;60.50;;;;;;5017163;28;20292;-66
2021/09/09 10:56:26;;;;;;;18.30;6.60;;;27.30;59.20;;;;;;5018237;28;20032;-66
2021/09/09 10:59:18;;;;;;;8.63;4.88;;;26.50;60.80;;;;;;5017476;28;20108;-66
2021/09/09 11:01:45;;;;;;;8.68;5.20;;;26.40;62.80;;;;;;5016915;28;20033;-66
2021/09/09 11:04:51;;;;;;;9.02;5.75;;;26.30;61.00;;;;;;5018049;28;20041;-66
2021/09/09 11:07:29;;;;;;;9.45;6.03;;;26.40;62.00;;;;;;5008618;28;20114;-66
2021/09/09 11:10:06;;;;;;;8.65;5.13;;;27.10;61.20;;;;;;4997825;28;20094;-66
2021/09/09 11:12:39;;;;;;;12.27;5.30;;;26.30;62.00;;;;;;5004599;28;20125;-66
2021/09/09 11:15:08;;;;;;;;;;;25.30;65.00;;;;;;5012136;28;20029;-66
2021/09/09 11:17:36;;;;;;;8.23;5.40;;;25.50;64.30;;;;;;5013359;28;19909;-66
2021/09/09 11:20:05;;;;;;;9.07;5.57;;;26.50;63.50;;;;;;5012973;28;20117;-66
2021/09/09 11:22:32;;;;;;;10.02;5.30;;;27.20;62.90;;;;;;5003555;28;20096;-66
2021/09/09 11:24:59;;;;;;;8.32;4.90;;;27.00;62.20;;;;;;5004855;28;20032;-66
2021/09/09 11:27:33;;;;;;;9.77;5.47;;;27.10;61.00;;;;;;5015406;28;20022;-66
2021/09/09 11:30:03;;;;;;;7.25;5.20;;;27.60;60.50;;;;;;5013765;28;20053;-66
2021/09/09 11:32:30;;;;;;;8.07;5.53;;;27.50;59.60;;;;;;5009874;28;20022;-67
2021/09/09 11:35:08;;;;;;;7.90;5.28;;;27.40;59.40;;;;;;5008840;28;20026;-66
2021/09/09 11:37:45;;;;;;;8.88;5.97;;;26.40;60.80;;;;;;5011123;28;20101;-66
2021/09/09 11:40:13;;;;;;;8.20;5.47;;;25.50;63.80;;;;;;4996492;28;20054;-66
2021/09/09 11:42:43;;;;;;;12.05;5.70;;;25.10;64.90;;;;;;5001692;28;20038;-66
2021/09/09 11:45:09;;;;;;;8.18;5.15;;;25.50;66.30;;;;;;5015718;28;20026;-66
2021/09/09 11:47:35;;;;;;;8.45;5.65;;;25.50;64.60;;;;;;5013327;28;20026;-66
2021/09/09 11:50:07;;;;;;;9.25;6.05;;;25.60;64.70;;;;;;5001534;28;20112;-67
2021/09/09 11:52:36;;;;;;;9.57;5.70;;;25.40;65.40;;;;;;4997606;28;20404;-66
2021/09/09 11:55:15;;;;;;;11.23;5.25;;;25.20;65.20;;;;;;4996620;28;20133;-66
2021/09/09 11:57:43;;;;;;;9.63;5.22;;;25.50;65.90;;;;;;4997870;28;20014;-66
2021/09/09 12:00:14;;;;;;;8.55;5.35;;;26.10;63.50;;;;;;5023233;28;20022;-67
2021/09/09 12:02:43;;;;;;;7.90;5.35;;;26.20;64.00;;;;;;5035491;28;20314;-66
2021/09/09 12:05:10;;;;;;;10.23;6.22;;;25.30;64.60;;;;;;4998759;28;20034;-67
2021/09/09 12:07:37;;;;;;;8.57;5.40;;;24.90;67.80;;;;;;4997522;28;20026;-66
2021/09/09 12:10:15;;;;;;;8.32;5.05;;;25.80;65.70;;;;;;4996065;28;20023;-66
2021/09/09 12:12:59;;;;;;;9.38;5.47;;;26.60;64.40;;;;;;4997563;28;20430;-66
2021/09/09 12:15:27;;;;;;;9.93;5.18;;;26.70;63.30;;;;;;4996591;28;20320;-66
2021/09/09 12:18:13;;;;;;;9.32;5.50;;;26.50;64.20;;;;;;5001998;28;20109;-66
2021/09/09 12:20:42;;;;;;;7.30;5.05;;;27.30;64.30;;;;;;5008288;28;20025;-66
2021/09/09 12:23:17;;;;;;;8.52;5.32;;;28.00;60.60;;;;;;4996039;28;20026;-67
2021/09/09 12:25:43;;;;;;;7.07;5.03;;;27.90;60.30;;;;;;5013194;28;20080;-66
2021/09/09 12:28:16;;;;;;;9.23;5.47;;;27.70;61.10;;;;;;5016692;28;20072;-67
2021/09/09 12:30:53;;;;;;;8.68;4.78;;;27.80;61.30;;;;;;5013784;28;20033;-67
2021/09/09 12:33:32;;;;;;;9.45;5.00;;;28.10;60.10;;;;;;5004869;28;20030;-66
2021/09/09 12:36:12;;;;;;;8.35;5.30;;;28.20;60.70;;;;;;5016702;28;20025;-66
2021/09/09 12:38:59;;;;;;;8.88;5.47;;;28.00;60.50;;;;;;5014682;28;20042;-67
2021/09/09 12:41:27;;;;;;;9.57;5.53;;;27.90;60.10;;;;;;5013621;28;20034;-68
2021/09/09 12:43:59;;;;;;;8.27;5.38;;;27.70;62.00;;;;;;4996752;28;20042;-66
2021/09/09 12:46:41;;;;;;;9.48;5.15;;;27.70;61.60;;;;;;5004386;28;20025;-66